Time;durP1;ratioP1;P1;durP2;ratioP2;P2;SDS_P1;SDS_P2;PMS_P1;PMS_P2;Temp;Humidity;BMP_temperature;BMP_pressure;BME280_temperature;BME280_humidity;BME280_pressure;Samples;Min_cycle;Max_cycle;Signal;HPM_P1;HPM_P2
2021/09/27 00:00:16;;;;;;;22.43;20.03;;;18.50;98.30;;;;;;4117170;28;20548;-82
2021/09/27 00:02:19;;;;;;;23.23;20.93;;;18.50;98.30;;;;;;4116422;28;20983;-82
2021/09/27 00:04:22;;;;;;;23.50;21.20;;;18.50;98.30;;;;;;4116569;28;20491;-82
2021/09/27 00:06:26;;;;;;;25.53;22.80;;;18.40;98.30;;;;;;4116798;28;20471;-82
2021/09/27 00:08:30;;;;;;;24.83;22.20;;;18.40;98.30;;;;;;4116279;28;20483;-82
2021/09/27 00:10:37;;;;;;;23.33;20.93;;;18.40;98.30;;;;;;4117484;28;20479;-82
2021/09/27 00:12:40;;;;;;;23.80;21.40;;;18.40;98.30;;;;;;4116352;28;20549;-82
2021/09/27 00:14:43;;;;;;;24.40;21.90;;;18.30;98.30;;;;;;4116376;28;20596;-81
2021/09/27 00:16:46;;;;;;;23.50;21.20;;;18.30;98.30;;;;;;4116056;28;20476;-82
2021/09/27 00:18:49;;;;;;;24.27;21.80;;;18.30;98.30;;;;;;4116152;28;20507;-82
2021/09/27 00:20:56;;;;;;;25.50;22.90;;;18.30;98.30;;;;;;4115826;28;20908;-82
2021/09/27 00:22:59;;;;;;;24.47;22.03;;;18.30;98.30;;;;;;4116302;28;20511;-82
2021/09/27 00:25:04;;;;;;;25.23;22.33;;;18.30;98.30;;;;;;4115713;28;20488;-83
2021/09/27 00:27:07;;;;;;;24.90;22.50;;;18.20;98.30;;;;;;4115998;28;20468;-82
2021/09/27 00:29:10;;;;;;;25.93;23.40;;;18.10;98.30;;;;;;4116145;28;20476;-82
2021/09/27 00:31:13;;;;;;;26.37;23.63;;;18.10;98.30;;;;;;4116672;28;20476;-82
2021/09/27 00:33:18;;;;;;;26.67;23.77;;;18.10;98.30;;;;;;4122753;28;20500;-82
2021/09/27 00:35:24;;;;;;;26.83;24.23;;;18.20;98.30;;;;;;4124710;28;20480;-82
2021/09/27 00:37:27;;;;;;;28.90;25.77;;;18.10;98.30;;;;;;4127911;28;20540;-82
2021/09/27 00:39:30;;;;;;;28.07;25.03;;;18.20;98.30;;;;;;4127326;28;20476;-82
2021/09/27 00:41:35;;;;;;;27.40;24.27;;;18.10;98.30;;;;;;4127306;28;20472;-83
2021/09/27 00:43:40;;;;;;;28.13;23.90;;;18.20;98.30;;;;;;4125656;28;20600;-82
2021/09/27 00:45:46;;;;;;;28.10;25.10;;;18.20;98.30;;;;;;4125659;28;20460;-82
2021/09/27 00:47:49;;;;;;;27.83;24.77;;;18.20;98.30;;;;;;4118714;28;20464;-83
2021/09/27 00:49:52;;;;;;;28.20;25.40;;;18.20;98.30;;;;;;4125770;28;20503;-82
2021/09/27 00:51:55;;;;;;;31.30;25.87;;;18.20;98.30;;;;;;4117727;28;20583;-82
2021/09/27 00:54:01;;;;;;;29.90;26.83;;;18.30;98.30;;;;;;4117663;28;20861;-82
2021/09/27 00:56:05;;;;;;;28.53;25.73;;;18.30;98.30;;;;;;4117255;28;20582;-82
2021/09/27 00:58:10;;;;;;;29.20;26.03;;;18.30;98.30;;;;;;4116268;28;20468;-82
2021/09/27 01:00:18;;;;;;;27.70;24.80;;;18.30;98.30;;;;;;4115193;28;20468;-82
2021/09/27 01:02:21;;;;;;;29.37;26.17;;;18.30;98.30;;;;;;4114374;28;20547;-82
2021/09/27 01:04:24;;;;;;;28.63;25.53;;;18.30;98.30;;;;;;4116541;28;20607;-82
2021/09/27 01:06:48;;;;;;;27.00;24.17;;;18.40;98.30;;;;;;4117557;28;20468;-83
2021/09/27 01:09:04;;;;;;;26.57;23.90;;;18.40;98.30;;;;;;4111228;28;20464;-84
2021/09/27 01:11:21;;;;;;;28.00;24.47;;;18.40;98.30;;;;;;4116045;28;20491;-84
2021/09/27 01:13:41;;;;;;;28.13;25.23;;;18.40;98.30;;;;;;4116729;28;20543;-82
2021/09/27 01:15:51;;;;;;;27.37;24.47;;;18.50;98.30;;;;;;4113843;28;20487;-83
2021/09/27 01:18:04;;;;;;;28.73;25.77;;;18.50;98.30;;;;;;4116420;28;20464;-83
2021/09/27 01:20:43;;;;;;;28.47;25.47;;;18.50;98.30;;;;;;4112349;28;20498;-83
2021/09/27 01:22:56;;;;;;;27.20;24.30;;;18.60;98.30;;;;;;4114181;28;20845;-82
2021/09/27 01:25:37;;;;;;;29.57;26.37;;;18.60;98.30;;;;;;4116187;28;20488;-83
2021/09/27 01:28:05;;;;;;;30.63;26.60;;;18.60;98.30;;;;;;4088242;28;20500;-83
2021/09/27 01:30:35;;;;;;;28.40;25.50;;;18.60;98.30;;;;;;4116400;28;20479;-83
2021/09/27 01:32:44;;;;;;;31.00;26.87;;;18.60;98.30;;;;;;4116101;28;20476;-83
2021/09/27 01:34:53;;;;;;;29.37;26.40;;;18.50;98.30;;;;;;4116368;28;20574;-83
2021/09/27 01:37:02;;;;;;;30.90;27.57;;;18.60;98.30;;;;;;4115338;28;20475;-83
2021/09/27 01:39:11;;;;;;;28.30;25.50;;;18.60;98.30;;;;;;4115999;28;20551;-83
2021/09/27 01:41:28;;;;;;;28.27;25.37;;;18.70;98.30;;;;;;4115348;28;20455;-83
2021/09/27 01:43:35;;;;;;;31.03;26.67;;;18.70;98.30;;;;;;4115783;28;20523;-83
2021/09/27 01:45:45;;;;;;;27.93;24.93;;;18.80;98.30;;;;;;4115320;28;20496;-83
2021/09/27 01:48:01;;;;;;;27.80;24.90;;;18.70;98.30;;;;;;4115646;28;20478;-82
2021/09/27 01:50:11;;;;;;;28.77;25.77;;;18.70;98.30;;;;;;4114997;28;20480;-83
2021/09/27 01:52:20;;;;;;;31.37;26.93;;;18.60;98.30;;;;;;4113905;28;21005;-83
2021/09/27 01:54:32;;;;;;;31.60;28.10;;;18.60;98.30;;;;;;4115048;28;20499;-83
2021/09/27 01:56:45;;;;;;;30.40;27.10;;;18.60;98.30;;;;;;4114949;28;20487;-82
2021/09/27 01:58:58;;;;;;;27.60;24.83;;;18.70;98.30;;;;;;4115406;28;20496;-83
2021/09/27 02:01:05;;;;;;;31.40;28.20;;;18.70;98.30;;;;;;4114919;28;20480;-83
2021/09/27 02:03:17;;;;;;;30.90;27.63;;;18.60;98.30;;;;;;4110682;28;20467;-82
2021/09/27 02:05:27;;;;;;;29.63;26.40;;;18.60;98.30;;;;;;4114595;28;21001;-83
2021/09/27 02:07:35;;;;;;;30.33;27.03;;;18.70;98.30;;;;;;4114469;28;21329;-83
2021/09/27 02:09:43;;;;;;;31.73;27.43;;;18.70;98.30;;;;;;4107246;28;20554;-83
2021/09/27 02:11:51;;;;;;;31.07;27.67;;;18.70;98.30;;;;;;4114191;28;20474;-82
2021/09/27 02:14:03;;;;;;;33.67;28.93;;;18.70;98.30;;;;;;4108871;28;20594;-83
2021/09/27 02:16:12;;;;;;;32.87;29.13;;;18.60;98.30;;;;;;4113750;28;20511;-82
2021/09/27 02:18:24;;;;;;;33.53;29.07;;;18.60;98.30;;;;;;4113832;28;20515;-83
2021/09/27 02:20:33;;;;;;;34.00;30.40;;;18.60;98.30;;;;;;4114317;28;20566;-82
2021/09/27 02:22:40;;;;;;;33.73;29.87;;;18.60;98.30;;;;;;4113853;28;20481;-82
2021/09/27 02:24:53;;;;;;;32.80;28.83;;;18.60;98.30;;;;;;4114037;28;20578;-83
2021/09/27 02:26:56;;;;;;;37.07;30.50;;;18.60;98.30;;;;;;4113947;28;20560;-83
2021/09/27 02:28:59;;;;;;;34.03;30.33;;;18.50;98.30;;;;;;4113831;28;20484;-82
2021/09/27 02:31:10;;;;;;;32.00;28.53;;;18.50;98.30;;;;;;4115241;28;20482;-83
2021/09/27 02:33:24;;;;;;;32.17;28.37;;;18.50;98.30;;;;;;4117956;28;20476;-82
2021/09/27 02:35:34;;;;;;;32.53;27.63;;;18.40;98.30;;;;;;4118149;28;20471;-83
2021/09/27 02:37:45;;;;;;;32.90;28.20;;;18.40;98.30;;;;;;4110201;28;20607;-83
2021/09/27 02:39:54;;;;;;;31.40;26.60;;;18.30;98.30;;;;;;4118249;28;20471;-83
2021/09/27 02:42:04;;;;;;;31.33;27.93;;;18.30;98.30;;;;;;4117857;28;20532;-83
2021/09/27 02:44:07;;;;;;;33.23;29.60;;;18.40;98.30;;;;;;4117908;28;20499;-83
2021/09/27 02:46:11;;;;;;;33.47;29.93;;;18.40;98.30;;;;;;4118100;28;20584;-82
2021/09/27 02:48:22;;;;;;;34.00;30.40;;;18.40;98.30;;;;;;4117707;28;20468;-82
2021/09/27 02:50:30;;;;;;;33.57;30.00;;;18.50;98.30;;;;;;4125876;28;20467;-83
2021/09/27 02:52:34;;;;;;;35.50;31.70;;;18.50;98.30;;;;;;4117423;28;20555;-82
2021/09/27 02:54:39;;;;;;;34.60;30.90;;;18.50;98.30;;;;;;4110071;28;20496;-83
2021/09/27 02:57:13;;;;;;;34.30;30.27;;;18.40;98.30;;;;;;4117951;28;20852;-83
2021/09/27 02:59:21;;;;;;;34.57;30.27;;;18.40;98.30;;;;;;4117599;28;20491;-84
2021/09/27 03:01:33;;;;;;;37.57;32.90;;;18.30;98.30;;;;;;4117179;28;20471;-83
2021/09/27 03:03:50;;;;;;;36.50;32.40;;;18.30;98.30;;;;;;4109748;28;20476;-83
2021/09/27 03:06:12;;;;;;;34.57;30.87;;;18.30;98.30;;;;;;4117328;28;20510;-82
2021/09/27 03:08:30;;;;;;;34.60;30.80;;;18.30;98.30;;;;;;4115009;28;20468;-83
2021/09/27 03:10:39;;;;;;;35.33;31.80;;;18.20;98.30;;;;;;4116997;28;20482;-83
2021/09/27 03:12:52;;;;;;;36.57;32.77;;;18.20;98.30;;;;;;4109945;28;20468;-84
2021/09/27 03:15:23;;;;;;;36.97;32.97;;;18.20;98.30;;;;;;4115865;28;21247;-83
2021/09/27 03:17:34;;;;;;;35.57;31.70;;;18.20;98.30;;;;;;4117286;28;20527;-83
2021/09/27 03:19:52;;;;;;;37.20;32.63;;;18.20;98.30;;;;;;4109946;28;20554;-83
2021/09/27 03:22:03;;;;;;;36.40;31.10;;;18.30;98.30;;;;;;4116856;28;20535;-83
2021/09/27 03:24:25;;;;;;;36.80;32.60;;;18.30;98.30;;;;;;4116946;28;20495;-83
2021/09/27 03:26:52;;;;;;;38.90;34.87;;;18.30;98.30;;;;;;4117094;28;20558;-83
2021/09/27 03:29:03;;;;;;;37.70;33.70;;;18.20;98.30;;;;;;4111850;28;20555;-82
2021/09/27 03:31:17;;;;;;;38.23;34.23;;;18.30;98.30;;;;;;4116651;28;20464;-83
2021/09/27 03:33:32;;;;;;;37.53;33.57;;;18.30;98.30;;;;;;4116970;28;20471;-83
2021/09/27 03:35:47;;;;;;;39.80;33.03;;;18.20;98.30;;;;;;4109045;28;20499;-83
2021/09/27 03:37:58;;;;;;;41.30;34.73;;;18.20;98.30;;;;;;4116761;28;20499;-83
2021/09/27 03:40:18;;;;;;;42.00;34.63;;;18.20;98.30;;;;;;4116539;28;20482;-83
2021/09/27 03:42:28;;;;;;;41.90;33.77;;;18.20;98.30;;;;;;4115063;28;20472;-83
2021/09/27 03:44:40;;;;;;;38.27;34.23;;;18.20;98.30;;;;;;4123796;28;20537;-83
2021/09/27 03:46:53;;;;;;;40.73;34.03;;;18.10;98.30;;;;;;4122411;28;20471;-83
2021/09/27 03:49:02;;;;;;;39.50;33.60;;;18.20;98.30;;;;;;4127229;28;20525;-82
2021/09/27 03:51:14;;;;;;;35.37;31.40;;;18.10;98.30;;;;;;4123779;28;20551;-83
2021/09/27 03:53:25;;;;;;;34.73;30.27;;;18.10;98.30;;;;;;4124310;28;20470;-83
2021/09/27 03:55:37;;;;;;;36.23;31.00;;;18.20;98.30;;;;;;4124587;28;20463;-83
2021/09/27 03:57:44;;;;;;;37.80;30.10;;;18.20;98.30;;;;;;4125591;28;20518;-83
2021/09/27 03:59:53;;;;;;;33.43;29.93;;;18.20;98.30;;;;;;4123317;28;20567;-82
2021/09/27 04:02:05;;;;;;;31.20;27.77;;;18.20;98.30;;;;;;4123932;28;20493;-83
2021/09/27 04:04:21;;;;;;;33.00;29.27;;;18.20;98.30;;;;;;4120717;28;20568;-83
2021/09/27 04:06:43;;;;;;;31.53;28.27;;;18.10;98.30;;;;;;4125978;28;20476;-83
2021/09/27 04:08:57;;;;;;;31.13;27.90;;;18.10;98.30;;;;;;4126122;28;20883;-83
2021/09/27 04:11:14;;;;;;;29.27;26.17;;;18.10;98.30;;;;;;4119790;28;20463;-83
2021/09/27 04:13:29;;;;;;;29.67;26.30;;;18.20;98.30;;;;;;4126485;28;20472;-83
2021/09/27 04:15:49;;;;;;;31.13;27.83;;;18.20;98.30;;;;;;4123986;28;20506;-83
2021/09/27 04:18:04;;;;;;;30.37;26.53;;;18.20;98.30;;;;;;4118633;28;20491;-83
2021/09/27 04:20:14;;;;;;;32.63;26.17;;;18.10;98.30;;;;;;4126370;28;21034;-83
2021/09/27 04:22:24;;;;;;;31.23;27.57;;;18.20;98.30;;;;;;4121795;28;20471;-85
2021/09/27 04:24:47;;;;;;;31.13;27.83;;;18.20;98.30;;;;;;4123716;28;20582;-85
2021/09/27 04:27:05;;;;;;;31.33;28.10;;;18.20;98.30;;;;;;4124746;28;20530;-85
2021/09/27 04:29:21;;;;;;;31.40;27.80;;;18.20;98.30;;;;;;4124995;28;20479;-85
2021/09/27 04:31:39;;;;;;;30.07;27.00;;;18.20;98.30;;;;;;4119008;28;20471;-85
2021/09/27 04:33:55;;;;;;;30.30;27.20;;;18.20;98.30;;;;;;4116976;28;20502;-85
2021/09/27 04:36:10;;;;;;;30.50;25.70;;;18.20;98.30;;;;;;4124226;28;20479;-84
2021/09/27 04:38:15;;;;;;;29.60;26.40;;;18.10;98.30;;;;;;4124492;28;20599;-84
2021/09/27 04:40:33;;;;;;;30.60;26.50;;;18.10;98.30;;;;;;4122879;28;21003;-85
2021/09/27 04:43:06;;;;;;;30.03;26.90;;;18.20;98.30;;;;;;4109523;28;20468;-84
2021/09/27 04:45:40;;;;;;;30.83;26.70;;;18.20;98.30;;;;;;4132937;28;20522;-84
2021/09/27 04:47:53;;;;;;;32.07;27.93;;;18.20;98.30;;;;;;4098333;29;20470;-86
2021/09/27 04:50:10;;;;;;;34.67;30.93;;;18.20;98.30;;;;;;4128700;28;20496;-85
2021/09/27 04:52:26;;;;;;;38.10;29.77;;;18.20;98.30;;;;;;4135424;28;20459;-85
2021/09/27 04:55:03;;;;;;;35.33;30.93;;;18.20;98.30;;;;;;4129630;28;20960;-84
2021/09/27 04:57:19;;;;;;;36.90;29.47;;;18.20;98.30;;;;;;4139903;28;21336;-84
2021/09/27 04:59:35;;;;;;;35.10;29.97;;;18.20;98.30;;;;;;4133659;28;20471;-84
2021/09/27 05:02:08;;;;;;;34.83;29.90;;;18.20;98.30;;;;;;4118582;28;20471;-85
2021/09/27 05:04:44;;;;;;;33.60;28.97;;;18.20;98.30;;;;;;4122907;28;20553;-85
2021/09/27 05:07:11;;;;;;;35.87;29.17;;;18.30;98.30;;;;;;4117244;28;20467;-85
2021/09/27 05:09:25;;;;;;;37.60;29.00;;;18.30;98.30;;;;;;4130247;28;20455;-85
2021/09/27 05:11:54;;;;;;;33.57;30.00;;;18.20;98.30;;;;;;4130134;28;20849;-85
2021/09/27 05:14:22;;;;;;;38.30;30.17;;;18.20;98.30;;;;;;4128921;28;20499;-85
2021/09/27 05:16:49;;;;;;;34.70;27.70;;;18.20;98.30;;;;;;4123592;28;20471;-85
2021/09/27 05:19:23;;;;;;;35.37;29.83;;;18.30;98.30;;;;;;4118938;28;21066;-85
2021/09/27 05:22:02;;;;;;;36.40;30.53;;;18.30;98.30;;;;;;4130310;28;20912;-85
2021/09/27 05:24:25;;;;;;;41.73;30.77;;;18.20;98.30;;;;;;4092941;28;20573;-85
2021/09/27 05:26:44;;;;;;;39.40;31.67;;;18.20;98.30;;;;;;4130362;28;20553;-85
2021/09/27 05:29:14;;;;;;;38.40;30.13;;;18.20;98.30;;;;;;4120442;28;20486;-85
2021/09/27 05:31:47;;;;;;;41.53;30.57;;;18.20;98.30;;;;;;4114056;28;20463;-85
2021/09/27 05:34:05;;;;;;;40.40;33.03;;;18.20;98.30;;;;;;4108117;28;20578;-85
2021/09/27 05:36:27;;;;;;;47.20;36.17;;;18.10;98.30;;;;;;4114493;28;20860;-85
2021/09/27 05:38:37;;;;;;;39.10;32.03;;;18.10;98.30;;;;;;4113901;28;20480;-85
2021/09/27 05:40:59;;;;;;;43.57;35.23;;;18.20;98.30;;;;;;4107229;28;20460;-85
2021/09/27 05:43:31;;;;;;;43.27;34.57;;;18.20;98.30;;;;;;4114542;28;20503;-85
2021/09/27 05:45:45;;;;;;;45.50;35.20;;;18.20;98.30;;;;;;4097400;28;20535;-85
2021/09/27 05:47:54;;;;;;;47.60;35.83;;;18.20;98.30;;;;;;4098390;29;20473;-85
2021/09/27 05:50:07;;;;;;;48.90;35.87;;;18.20;98.30;;;;;;4106005;28;20480;-85
2021/09/27 05:52:16;;;;;;;44.00;34.13;;;18.20;98.30;;;;;;4098210;29;20494;-86
2021/09/27 05:54:25;;;;;;;47.20;36.90;;;18.20;98.30;;;;;;4098724;29;20564;-85
2021/09/27 05:56:37;;;;;;;44.90;34.20;;;18.20;98.30;;;;;;4098289;29;20469;-85
2021/09/27 05:58:48;;;;;;;41.60;35.23;;;18.20;98.30;;;;;;4090872;29;20501;-85
2021/09/27 06:01:02;;;;;;;42.20;36.00;;;18.20;98.30;;;;;;4099117;28;20473;-85
2021/09/27 06:03:25;;;;;;;44.70;36.53;;;18.30;98.30;;;;;;4098544;29;20488;-85
2021/09/27 06:05:31;;;;;;;40.33;33.53;;;18.30;98.30;;;;;;4099031;28;20469;-85
2021/09/27 06:07:42;;;;;;;41.43;33.23;;;18.30;98.30;;;;;;4100177;28;20479;-85
2021/09/27 06:09:58;;;;;;;38.87;33.27;;;18.30;98.30;;;;;;4098842;29;20457;-85
2021/09/27 06:12:09;;;;;;;49.30;33.83;;;18.30;98.30;;;;;;4097952;28;20830;-85
2021/09/27 06:14:16;;;;;;;40.00;32.30;;;18.30;98.30;;;;;;4098407;28;20528;-85
2021/09/27 06:16:35;;;;;;;43.40;35.30;;;18.30;98.30;;;;;;4098357;29;20523;-85
2021/09/27 06:18:57;;;;;;;39.13;32.83;;;18.30;98.30;;;;;;4090853;29;20519;-85
2021/09/27 06:21:20;;;;;;;42.10;33.43;;;18.30;98.30;;;;;;4098883;28;20465;-85
2021/09/27 06:23:58;;;;;;;40.20;33.10;;;18.30;98.30;;;;;;4097988;29;20512;-85
2021/09/27 06:26:07;;;;;;;38.00;32.47;;;18.30;98.30;;;;;;4090552;29;20500;-85
2021/09/27 06:28:25;;;;;;;39.23;31.07;;;18.30;98.30;;;;;;4098301;29;20471;-85
2021/09/27 06:30:37;;;;;;;40.33;33.43;;;18.20;98.30;;;;;;4097965;29;20468;-85
2021/09/27 06:32:50;;;;;;;43.70;35.60;;;18.20;98.30;;;;;;4090926;29;20464;-85
2021/09/27 06:34:58;;;;;;;39.77;32.47;;;18.20;98.30;;;;;;4097837;29;20529;-85
2021/09/27 06:37:02;;;;;;;42.50;35.27;;;18.20;98.30;;;;;;4098049;28;20492;-85
2021/09/27 06:39:12;;;;;;;43.27;34.27;;;18.20;98.30;;;;;;4097856;29;20580;-84
2021/09/27 06:41:19;;;;;;;46.97;36.20;;;18.20;98.30;;;;;;4097984;28;20969;-86
2021/09/27 06:43:24;;;;;;;44.27;34.83;;;18.20;98.30;;;;;;4098266;28;20568;-85
2021/09/27 06:45:28;;;;;;;43.80;35.67;;;18.20;98.30;;;;;;4113153;28;20480;-85
2021/09/27 06:47:31;;;;;;;43.40;36.83;;;18.20;98.30;;;;;;4113857;28;20902;-85
2021/09/27 06:49:34;;;;;;;44.83;35.20;;;18.30;98.30;;;;;;4113650;28;20571;-85
2021/09/27 06:51:42;;;;;;;44.67;35.67;;;18.20;98.30;;;;;;4106256;28;20961;-85
2021/09/27 06:53:45;;;;;;;50.03;37.40;;;18.20;98.30;;;;;;4113602;28;20565;-85
2021/09/27 06:55:48;;;;;;;45.47;36.60;;;18.20;98.30;;;;;;4113892;28;20559;-85
2021/09/27 06:57:51;;;;;;;46.30;37.13;;;18.20;98.30;;;;;;4113944;28;20555;-85
2021/09/27 06:59:57;;;;;;;44.33;36.73;;;18.20;98.30;;;;;;4113623;28;21087;-84
2021/09/27 07:02:02;;;;;;;42.30;34.90;;;18.20;98.30;;;;;;4113658;28;21128;-85
2021/09/27 07:04:05;;;;;;;41.70;35.33;;;18.20;98.30;;;;;;4113514;28;21015;-85
2021/09/27 07:06:08;;;;;;;43.83;34.83;;;18.20;98.30;;;;;;4113563;28;20977;-85
2021/09/27 07:08:13;;;;;;;43.37;35.47;;;18.30;98.30;;;;;;4113675;28;20845;-85
2021/09/27 07:10:18;;;;;;;46.23;35.80;;;18.30;98.30;;;;;;4114100;28;20498;-85
2021/09/27 07:12:22;;;;;;;43.90;35.60;;;18.20;98.30;;;;;;4113471;28;20500;-85
2021/09/27 07:14:25;;;;;;;45.70;35.50;;;18.30;98.30;;;;;;4113691;28;20505;-85
2021/09/27 07:16:28;;;;;;;47.50;36.70;;;18.30;98.30;;;;;;4113960;28;20547;-85
2021/09/27 07:18:39;;;;;;;40.07;34.40;;;18.30;98.30;;;;;;4109470;28;20459;-84
2021/09/27 07:20:42;;;;;;;46.23;37.77;;;18.30;98.30;;;;;;4116791;28;20472;-85
2021/09/27 07:22:46;;;;;;;44.80;36.73;;;18.30;98.30;;;;;;4116296;28;20574;-85
2021/09/27 07:24:50;;;;;;;48.07;38.93;;;18.30;98.30;;;;;;4116525;28;21088;-84
2021/09/27 07:26:53;;;;;;;50.53;39.37;;;18.30;98.30;;;;;;4116336;28;20475;-85
2021/09/27 07:28:57;;;;;;;46.00;37.30;;;18.30;98.30;;;;;;4116411;28;20520;-85
2021/09/27 07:31:00;;;;;;;43.97;36.47;;;18.20;98.30;;;;;;4116254;28;20551;-85
2021/09/27 07:33:04;;;;;;;43.77;38.00;;;18.20;98.30;;;;;;4116468;28;20475;-84
2021/09/27 07:35:10;;;;;;;47.20;37.40;;;18.20;98.30;;;;;;4116451;28;20515;-85
2021/09/27 07:37:13;;;;;;;48.87;38.80;;;18.30;98.30;;;;;;4116842;28;20979;-85
2021/09/27 07:39:18;;;;;;;44.37;35.97;;;18.20;98.30;;;;;;4116506;28;20527;-85
2021/09/27 07:41:25;;;;;;;44.83;34.47;;;18.20;98.30;;;;;;4116104;28;20551;-84
2021/09/27 07:43:28;;;;;;;48.73;37.60;;;18.30;98.30;;;;;;4116298;28;20464;-85
2021/09/27 07:45:34;;;;;;;42.90;37.30;;;18.30;98.30;;;;;;4115859;28;20488;-85
2021/09/27 07:47:37;;;;;;;43.63;36.57;;;18.20;98.30;;;;;;4108726;28;20912;-85
2021/09/27 07:49:40;;;;;;;46.90;36.80;;;18.20;98.30;;;;;;4116476;28;20539;-85
2021/09/27 07:51:43;;;;;;;46.10;36.83;;;18.20;98.30;;;;;;4115906;28;20499;-85
2021/09/27 07:53:46;;;;;;;47.90;37.00;;;18.30;98.30;;;;;;4116094;28;20494;-85
2021/09/27 07:55:50;;;;;;;45.83;35.90;;;18.30;98.30;;;;;;4116213;28;20490;-85
2021/09/27 07:57:54;;;;;;;43.27;35.27;;;18.30;98.30;;;;;;4116572;28;20464;-85
2021/09/27 07:59:58;;;;;;;45.60;35.87;;;18.40;98.30;;;;;;4116243;28;20531;-84
2021/09/27 08:02:01;;;;;;;42.77;34.30;;;18.40;98.30;;;;;;4116243;28;20494;-85
2021/09/27 08:04:04;;;;;;;47.33;34.93;;;18.30;98.30;;;;;;4116567;28;20529;-85
2021/09/27 08:06:08;;;;;;;44.40;36.23;;;18.30;98.30;;;;;;4116044;28;20476;-85
2021/09/27 08:08:11;;;;;;;43.40;35.83;;;18.30;98.30;;;;;;4116259;28;20500;-85
2021/09/27 08:10:17;;;;;;;44.27;33.60;;;18.40;98.30;;;;;;4116348;28;20582;-85
2021/09/27 08:12:21;;;;;;;44.60;34.33;;;18.40;98.30;;;;;;4115811;28;20840;-85
2021/09/27 08:14:26;;;;;;;44.77;34.60;;;18.50;98.30;;;;;;4115919;28;20584;-85
2021/09/27 08:16:31;;;;;;;48.63;36.83;;;18.50;98.30;;;;;;4115809;28;20511;-85
2021/09/27 08:18:34;;;;;;;45.87;37.00;;;18.50;98.30;;;;;;4115717;28;20472;-85
2021/09/27 08:20:40;;;;;;;45.77;36.70;;;18.50;98.30;;;;;;4115576;28;20492;-85
2021/09/27 08:22:43;;;;;;;45.73;36.73;;;18.50;98.30;;;;;;4115460;28;20460;-85
2021/09/27 08:24:47;;;;;;;44.53;35.50;;;18.50;98.30;;;;;;4115756;28;20515;-86
2021/09/27 08:26:50;;;;;;;48.33;36.90;;;18.50;98.30;;;;;;4115990;28;20483;-85
2021/09/27 08:28:54;;;;;;;42.90;34.70;;;18.50;98.30;;;;;;4115614;28;20566;-85
2021/09/27 08:31:01;;;;;;;45.20;35.33;;;18.40;98.30;;;;;;4115753;28;20564;-85
2021/09/27 08:33:05;;;;;;;44.63;35.30;;;18.50;98.30;;;;;;4115754;28;20507;-85
2021/09/27 08:35:14;;;;;;;47.50;35.50;;;18.50;98.30;;;;;;4115529;28;20496;-85
2021/09/27 08:37:21;;;;;;;43.30;35.30;;;18.50;98.30;;;;;;4116359;28;20464;-85
2021/09/27 08:39:27;;;;;;;42.20;35.60;;;18.60;98.30;;;;;;4116023;28;20957;-85
2021/09/27 08:41:39;;;;;;;47.80;36.00;;;18.60;98.30;;;;;;4115030;28;20868;-85
2021/09/27 08:43:57;;;;;;;50.33;38.47;;;18.50;98.30;;;;;;4115490;28;20471;-85
2021/09/27 08:46:09;;;;;;;58.23;35.23;;;18.50;98.30;;;;;;4115548;28;20567;-85
2021/09/27 08:48:25;;;;;;;42.23;33.90;;;18.50;98.30;;;;;;4115651;28;20471;-85
2021/09/27 08:50:32;;;;;;;42.23;35.23;;;18.50;98.30;;;;;;4115717;28;20471;-85
2021/09/27 08:52:38;;;;;;;42.87;34.50;;;18.50;98.30;;;;;;4107504;28;21163;-85
2021/09/27 08:54:42;;;;;;;45.37;34.40;;;18.50;98.30;;;;;;4115729;28;20973;-85
2021/09/27 08:56:52;;;;;;;55.33;35.97;;;18.50;98.30;;;;;;4116163;28;20475;-85
2021/09/27 08:59:03;;;;;;;47.40;36.27;;;18.50;98.30;;;;;;4116494;28;20583;-85
2021/09/27 09:01:12;;;;;;;44.50;34.53;;;18.50;98.30;;;;;;4117856;28;20912;-85
2021/09/27 09:03:23;;;;;;;43.43;34.07;;;18.50;98.30;;;;;;4130611;28;20479;-85
2021/09/27 09:05:33;;;;;;;45.70;34.57;;;18.50;98.30;;;;;;4131378;28;20479;-85
2021/09/27 09:07:43;;;;;;;48.63;36.87;;;18.50;98.30;;;;;;4130332;28;20471;-85
2021/09/27 09:09:49;;;;;;;42.80;33.67;;;18.60;98.30;;;;;;4131035;28;20567;-85
2021/09/27 09:11:55;;;;;;;48.83;36.20;;;18.50;98.30;;;;;;4129114;28;20487;-85
2021/09/27 09:14:04;;;;;;;46.93;36.87;;;18.50;98.30;;;;;;4130262;28;20495;-85
2021/09/27 09:16:13;;;;;;;47.00;34.27;;;18.50;98.30;;;;;;4121090;28;20470;-85
2021/09/27 09:18:20;;;;;;;43.60;34.37;;;18.50;98.30;;;;;;4115503;28;20469;-85
2021/09/27 09:20:28;;;;;;;46.67;36.33;;;18.60;98.30;;;;;;4115134;28;20491;-85
2021/09/27 09:22:36;;;;;;;42.43;34.57;;;18.60;98.30;;;;;;4114710;28;20550;-85
2021/09/27 09:24:41;;;;;;;42.67;33.23;;;18.60;98.30;;;;;;4107927;28;20488;-84
2021/09/27 09:26:46;;;;;;;42.17;33.30;;;18.60;98.30;;;;;;4115000;28;20464;-85
2021/09/27 09:28:53;;;;;;;48.07;35.60;;;18.60;98.30;;;;;;4114852;28;20498;-85
2021/09/27 09:31:04;;;;;;;41.00;33.00;;;18.70;98.30;;;;;;4115066;28;20491;-85
2021/09/27 09:33:09;;;;;;;41.47;35.43;;;18.80;98.30;;;;;;4114797;28;20903;-84
2021/09/27 09:35:20;;;;;;;42.97;33.97;;;18.80;98.30;;;;;;4114836;28;20484;-85
2021/09/27 09:37:36;;;;;;;37.77;31.70;;;18.90;98.30;;;;;;4114651;28;20559;-85
2021/09/27 09:39:41;;;;;;;38.80;32.20;;;18.90;98.30;;;;;;4115480;28;20619;-85
2021/09/27 09:41:48;;;;;;;42.83;35.03;;;19.00;98.30;;;;;;4113976;28;20488;-85
2021/09/27 09:43:52;;;;;;;38.50;32.33;;;19.10;98.30;;;;;;4114658;28;20499;-85
2021/09/27 09:46:04;;;;;;;42.77;36.13;;;19.20;98.30;;;;;;4114540;28;20566;-85
2021/09/27 09:48:21;;;;;;;42.87;34.23;;;19.30;98.30;;;;;;4114584;28;20478;-84
2021/09/27 09:50:31;;;;;;;39.47;31.63;;;19.30;98.30;;;;;;4114901;28;20468;-85
2021/09/27 09:52:36;;;;;;;40.37;34.23;;;19.30;98.30;;;;;;4113985;28;20864;-85
2021/09/27 09:54:49;;;;;;;39.27;31.53;;;19.30;98.30;;;;;;4106978;28;20486;-85
2021/09/27 09:57:04;;;;;;;42.30;32.20;;;19.30;98.30;;;;;;4114147;28;20464;-84
2021/09/27 09:59:26;;;;;;;38.23;32.70;;;19.40;98.30;;;;;;4114481;28;20464;-85
2021/09/27 10:01:33;;;;;;;39.70;31.93;;;19.50;98.30;;;;;;4114164;28;20931;-85
2021/09/27 10:03:42;;;;;;;42.00;32.30;;;19.70;98.30;;;;;;4114380;28;20991;-85
2021/09/27 10:05:52;;;;;;;36.87;32.97;;;19.80;98.30;;;;;;4114101;28;20507;-85
2021/09/27 10:07:57;;;;;;;34.87;29.10;;;19.80;98.30;;;;;;4114596;28;20486;-85
2021/09/27 10:10:07;;;;;;;36.37;32.23;;;19.80;98.30;;;;;;4114498;28;20507;-85
2021/09/27 10:12:13;;;;;;;41.70;32.40;;;19.80;98.30;;;;;;4113720;28;20519;-85
2021/09/27 10:14:24;;;;;;;37.73;33.07;;;19.70;98.30;;;;;;4114067;28;20515;-85
2021/09/27 10:16:41;;;;;;;33.77;30.10;;;19.70;98.30;;;;;;4114351;28;21174;-85
2021/09/27 10:18:46;;;;;;;35.30;31.27;;;19.70;98.30;;;;;;4114455;28;20488;-85
2021/09/27 10:21:01;;;;;;;34.80;31.00;;;19.80;98.30;;;;;;4114384;28;20547;-85
2021/09/27 10:23:12;;;;;;;35.10;31.10;;;19.80;98.30;;;;;;4114234;28;20470;-85
2021/09/27 10:25:30;;;;;;;34.73;28.60;;;19.80;98.30;;;;;;4114116;28;20578;-85
2021/09/27 10:27:40;;;;;;;34.43;29.60;;;20.00;98.30;;;;;;4113998;28;20475;-85
2021/09/27 10:29:43;;;;;;;31.47;28.07;;;20.30;98.30;;;;;;4107085;28;20814;-85
2021/09/27 10:31:55;;;;;;;32.77;29.47;;;20.60;98.30;;;;;;4113749;28;20472;-85
2021/09/27 10:34:04;;;;;;;33.10;29.80;;;20.70;98.30;;;;;;4114099;28;20698;-84
2021/09/27 10:36:11;;;;;;;31.77;28.43;;;20.70;98.30;;;;;;4114088;28;20463;-85
2021/09/27 10:38:17;;;;;;;32.20;29.10;;;20.80;98.30;;;;;;4113970;28;20563;-85
2021/09/27 10:40:21;;;;;;;31.63;28.40;;;21.00;98.30;;;;;;4113883;28;20510;-85
2021/09/27 10:42:31;;;;;;;33.03;29.63;;;21.00;98.30;;;;;;4113254;28;20488;-85
2021/09/27 10:44:42;;;;;;;30.90;27.80;;;20.90;98.30;;;;;;4098329;28;21073;-86
2021/09/27 10:46:48;;;;;;;31.90;28.37;;;20.80;98.30;;;;;;4114071;28;20522;-86
2021/09/27 10:48:54;;;;;;;31.80;28.40;;;20.60;98.30;;;;;;4114158;28;21256;-85
2021/09/27 10:51:03;;;;;;;38.50;30.00;;;20.60;98.30;;;;;;4113675;28;20578;-86
2021/09/27 10:53:15;;;;;;;33.30;29.27;;;20.60;98.30;;;;;;4116962;28;20472;-86
2021/09/27 10:55:25;;;;;;;32.00;28.70;;;20.60;98.30;;;;;;4116882;28;21081;-86
2021/09/27 10:57:41;;;;;;;29.80;26.80;;;20.80;98.30;;;;;;4116995;28;20640;-86
2021/09/27 10:59:50;;;;;;;28.37;25.53;;;21.20;98.30;;;;;;4110260;28;20466;-86
2021/09/27 11:01:56;;;;;;;27.83;25.23;;;21.50;98.30;;;;;;4116690;28;20582;-86
2021/09/27 11:04:00;;;;;;;27.83;25.00;;;21.70;98.30;;;;;;4117109;28;20522;-85